createdAt,value
2023-02-22T00:02:25.487Z,49.50
2023-02-22T00:04:58.065Z,31.30
2023-02-22T00:07:30.314Z,20.60
2023-02-22T00:10:02.697Z,21.30
2023-02-22T00:12:35.561Z,22.20
2023-02-22T00:15:14.371Z,22.40
2023-02-22T00:17:46.806Z,27.80
2023-02-22T00:20:20.663Z,41.30
2023-02-22T00:22:53.510Z,31.80
2023-02-22T00:25:26.845Z,35.40
2023-02-22T00:27:59.207Z,24.50
2023-02-22T00:30:33.843Z,26.70
2023-02-22T00:33:07.204Z,20.80
2023-02-22T00:35:39.758Z,32.50
2023-02-22T00:38:12.797Z,28.70
2023-02-22T00:40:50.860Z,28.70
2023-02-22T00:43:27.032Z,26.10
2023-02-22T00:46:06.843Z,24.20
2023-02-22T00:48:47.784Z,18.90
2023-02-22T00:51:23.229Z,23.50
2023-02-22T00:53:58.487Z,23.20
2023-02-22T00:56:40.001Z,26.50
2023-02-22T00:59:12.552Z,22.60
2023-02-22T01:01:47.109Z,26.80
2023-02-22T01:04:19.594Z,18.20
2023-02-22T01:06:51.974Z,28.10
2023-02-22T01:09:24.654Z,26.20
2023-02-22T01:11:58.277Z,21.30
2023-02-22T01:14:31.311Z,21.60
2023-02-22T01:17:07.037Z,23.40
2023-02-22T01:19:42.603Z,28.90
2023-02-22T01:22:15.331Z,27.20
2023-02-22T01:24:53.449Z,25.20
2023-02-22T01:27:28.195Z,20.70
2023-02-22T01:30:00.789Z,26.90
2023-02-22T01:32:41.583Z,80.00
2023-02-22T01:35:20.745Z,60.30
2023-02-22T01:37:53.062Z,38.60
2023-02-22T01:40:28.354Z,39.00
2023-02-22T01:43:03.186Z,28.90
2023-02-22T01:45:50.994Z,56.00
2023-02-22T01:48:35.782Z,36.40
2023-02-22T01:51:16.133Z,35.50
2023-02-22T01:53:55.305Z,29.90
2023-02-22T01:56:31.488Z,27.10
2023-02-22T01:59:09.964Z,32.20
2023-02-22T02:01:45.613Z,32.80
2023-02-22T02:04:25.680Z,33.20
2023-02-22T02:07:04.503Z,32.90
2023-02-22T02:09:46.085Z,33.20
2023-02-22T02:12:23.739Z,33.80
2023-02-22T02:15:17.614Z,57.50
2023-02-22T02:17:56.674Z,126.40
2023-02-22T02:20:37.491Z,69.60
2023-02-22T02:23:30.082Z,45.00
2023-02-22T02:26:32.418Z,28.10
2023-02-22T02:29:32.042Z,26.70
2023-02-22T02:32:27.772Z,29.70
2023-02-22T02:35:05.657Z,29.20
2023-02-22T02:37:51.178Z,26.20
2023-02-22T02:40:28.343Z,25.30
2023-02-22T02:43:08.260Z,30.80
2023-02-22T02:45:48.978Z,29.40
2023-02-22T02:48:26.916Z,57.90
2023-02-22T02:51:02.261Z,141.80
2023-02-22T02:53:39.591Z,109.60
2023-02-22T02:56:11.880Z,153.20
2023-02-22T02:58:50.308Z,65.80
2023-02-22T03:01:45.144Z,40.40
2023-02-22T03:04:29.287Z,32.90
2023-02-22T03:07:18.457Z,49.00
2023-02-22T03:10:04.257Z,32.60
2023-02-22T03:12:46.943Z,37.90
2023-02-22T03:15:35.150Z,36.60
2023-02-22T03:18:23.007Z,33.90
2023-02-22T03:21:11.951Z,33.10
2023-02-22T03:23:49.949Z,34.40
2023-02-22T03:26:26.340Z,28.30
2023-02-22T03:29:05.372Z,25.60
2023-02-22T03:31:42.705Z,27.80
2023-02-22T03:34:20.470Z,22.70
2023-02-22T03:37:02.215Z,36.10
2023-02-22T03:39:37.659Z,36.20
2023-02-22T03:42:16.933Z,28.10
2023-02-22T03:44:53.495Z,35.80
2023-02-22T03:47:31.888Z,29.70
2023-02-22T03:50:10.716Z,26.50
2023-02-22T03:52:44.226Z,28.70
2023-02-22T03:55:21.671Z,35.30
2023-02-22T03:57:57.801Z,39.30
2023-02-22T04:00:34.097Z,34.90
2023-02-22T04:03:08.854Z,36.30
2023-02-22T04:05:41.305Z,30.50
2023-02-22T04:08:14.340Z,26.70
2023-02-22T04:10:46.973Z,40.00
2023-02-22T04:13:21.675Z,43.20
2023-02-22T04:15:59.948Z,39.00
2023-02-22T04:18:34.819Z,57.00
2023-02-22T04:21:09.199Z,48.40
2023-02-22T04:23:45.988Z,49.50
2023-02-22T04:26:32.144Z,45.40
2023-02-22T04:29:10.363Z,61.10
2023-02-22T04:31:45.203Z,67.10
2023-02-22T04:34:20.685Z,59.60
2023-02-22T04:36:54.357Z,62.60
2023-02-22T04:39:27.320Z,48.80
2023-02-22T04:41:59.822Z,66.30
2023-02-22T04:44:32.198Z,56.20
2023-02-22T04:47:04.695Z,56.50
2023-02-22T04:49:39.307Z,55.10
2023-02-22T04:52:11.946Z,33.20
2023-02-22T04:54:45.578Z,23.80
2023-02-22T04:57:17.918Z,33.40
2023-02-22T04:59:51.255Z,34.50
2023-02-22T05:02:24.273Z,32.30
2023-02-22T05:04:56.658Z,36.70
2023-02-22T05:07:29.086Z,32.70
2023-02-22T05:10:02.788Z,33.70
2023-02-22T05:12:36.154Z,29.70
2023-02-22T05:15:09.804Z,35.30
2023-02-22T05:17:45.530Z,32.70
2023-02-22T05:20:27.865Z,38.80
2023-02-22T05:23:02.058Z,36.30
2023-02-22T05:25:35.165Z,29.10
2023-02-22T05:28:13.041Z,31.50
2023-02-22T05:30:45.547Z,35.40
2023-02-22T05:33:17.992Z,32.80
2023-02-22T05:35:50.527Z,38.30
2023-02-22T05:38:23.694Z,33.40
2023-02-22T05:40:57.003Z,32.90
2023-02-22T05:43:29.363Z,33.00
2023-02-22T05:46:02.566Z,37.40
2023-02-22T05:48:35.080Z,41.20
2023-02-22T05:51:11.680Z,42.10
2023-02-22T05:53:48.278Z,45.10
2023-02-22T05:56:26.478Z,50.70
2023-02-22T05:58:59.840Z,60.60
2023-02-22T06:01:34.547Z,64.30
2023-02-22T06:04:07.871Z,54.70
2023-02-22T06:06:40.067Z,45.50
2023-02-22T06:09:12.330Z,47.90
2023-02-22T06:11:44.542Z,48.80
2023-02-22T06:14:16.845Z,50.40
2023-02-22T06:16:56.475Z,48.10
2023-02-22T06:19:29.004Z,48.30
2023-02-22T06:22:03.040Z,39.50
2023-02-22T06:24:39.387Z,47.70
2023-02-22T06:27:12.103Z,50.50
2023-02-22T06:29:47.752Z,54.60
2023-02-22T06:32:20.115Z,60.40
2023-02-22T06:34:52.597Z,56.90
2023-02-22T06:37:25.464Z,59.80
2023-02-22T06:40:00.756Z,57.70
2023-02-22T06:42:37.023Z,46.60
2023-02-22T06:45:10.857Z,43.00
2023-02-22T06:47:43.867Z,36.50
2023-02-22T06:50:24.766Z,43.60
2023-02-22T06:55:30.567Z,41.30
2023-02-22T06:58:03.358Z,36.40
2023-02-22T07:00:35.902Z,27.90
2023-02-22T07:03:08.272Z,31.00
2023-02-22T07:05:40.886Z,37.60
2023-02-22T07:08:13.757Z,45.40
2023-02-22T07:10:46.042Z,36.60
2023-02-22T07:13:18.395Z,43.50
2023-02-22T07:15:53.299Z,47.30
2023-02-22T07:18:25.878Z,49.50
2023-02-22T07:20:58.664Z,34.30
2023-02-22T07:23:30.945Z,32.30
2023-02-22T07:26:05.359Z,37.90
2023-02-22T07:28:38.127Z,53.10
2023-02-22T07:31:10.356Z,41.80
2023-02-22T07:33:42.956Z,34.20
2023-02-22T07:36:17.998Z,23.90
2023-02-22T07:38:50.405Z,33.20
2023-02-22T07:41:22.960Z,38.30
2023-02-22T07:43:57.478Z,35.00
2023-02-22T07:46:29.913Z,34.30
2023-02-22T07:49:02.646Z,32.50
2023-02-22T07:51:34.828Z,46.20
2023-02-22T07:54:07.386Z,25.60
2023-02-22T07:56:45.060Z,25.20
2023-02-22T07:59:17.633Z,33.80
2023-02-22T08:01:52.102Z,25.90
2023-02-22T08:04:24.529Z,32.40
2023-02-22T08:06:56.710Z,28.20
2023-02-22T08:09:31.653Z,33.20
2023-02-22T08:12:04.108Z,33.00
2023-02-22T08:14:36.405Z,35.80
2023-02-22T08:17:09.615Z,24.40
2023-02-22T08:19:42.274Z,28.30
2023-02-22T08:22:16.980Z,32.00
2023-02-22T08:24:49.299Z,29.00
2023-02-22T08:27:26.483Z,32.80
2023-02-22T08:29:59.276Z,29.60
2023-02-22T08:32:32.056Z,37.00
2023-02-22T08:35:05.099Z,37.30
2023-02-22T08:37:37.299Z,32.90
2023-02-22T08:40:13.331Z,34.60
2023-02-22T08:42:47.044Z,20.80
2023-02-22T08:45:22.131Z,23.80
2023-02-22T08:47:56.137Z,19.20
2023-02-22T08:50:33.016Z,25.10
2023-02-22T08:53:06.509Z,24.40
2023-02-22T08:55:39.942Z,24.40
2023-02-22T08:58:14.018Z,19.30
2023-02-22T09:00:46.574Z,29.20
2023-02-22T09:03:19.368Z,15.40
2023-02-22T09:05:51.944Z,25.50
2023-02-22T09:08:24.401Z,37.90
2023-02-22T09:10:56.709Z,31.40
2023-02-22T09:13:28.903Z,27.60
2023-02-22T09:16:01.549Z,14.80
2023-02-22T09:18:43.736Z,15.00
2023-02-22T09:21:18.050Z,13.90
2023-02-22T09:23:50.916Z,99.20
2023-02-22T09:26:24.736Z,24.50
2023-02-22T09:28:57.345Z,18.90
2023-02-22T09:31:29.990Z,12.90
2023-02-22T09:34:04.232Z,13.40
2023-02-22T09:36:36.708Z,11.00
2023-02-22T09:39:09.484Z,16.90
2023-02-22T09:41:51.395Z,17.70
2023-02-22T09:44:30.210Z,11.80
2023-02-22T09:47:02.667Z,17.90
2023-02-22T09:49:40.215Z,31.90
2023-02-22T09:52:19.844Z,24.10
2023-02-22T09:54:55.619Z,16.80
2023-02-22T09:57:35.252Z,19.80
2023-02-22T10:00:16.951Z,45.40
2023-02-22T10:03:01.773Z,23.50
2023-02-22T10:05:39.904Z,15.20
2023-02-22T10:08:16.279Z,19.60
2023-02-22T10:10:56.280Z,14.50
2023-02-22T10:13:39.356Z,16.60
2023-02-22T10:16:18.181Z,29.10
2023-02-22T10:19:16.799Z,20.40
2023-02-22T10:22:01.639Z,14.80
2023-02-22T10:24:45.591Z,17.60
2023-02-22T10:27:22.240Z,17.10
2023-02-22T10:30:05.523Z,17.40
2023-02-22T10:32:48.063Z,18.50
2023-02-22T10:35:25.735Z,20.90
2023-02-22T10:38:01.124Z,18.60
2023-02-22T10:40:34.228Z,13.20
2023-02-22T10:43:09.117Z,23.60
2023-02-22T10:45:41.717Z,16.40
2023-02-22T10:48:21.798Z,17.40
2023-02-22T10:51:00.238Z,13.70
2023-02-22T10:53:36.407Z,24.30
2023-02-22T10:56:21.416Z,20.00
2023-02-22T10:58:57.642Z,19.20
2023-02-22T11:01:40.891Z,17.90
2023-02-22T11:04:17.000Z,12.60
2023-02-22T11:06:52.214Z,21.80
2023-02-22T11:09:29.090Z,13.20
2023-02-22T11:12:12.927Z,13.30
2023-02-22T11:14:45.097Z,18.20
2023-02-22T11:17:26.244Z,11.20
2023-02-22T11:19:58.767Z,16.40
2023-02-22T11:22:38.786Z,9.80
2023-02-22T11:25:23.719Z,15.50
2023-02-22T11:28:00.031Z,12.20
2023-02-22T11:30:36.865Z,15.20
2023-02-22T11:33:23.938Z,17.00
2023-02-22T11:35:59.377Z,11.10
2023-02-22T11:38:33.525Z,16.50
2023-02-22T11:41:17.537Z,11.70
2023-02-22T11:43:51.863Z,14.00
2023-02-22T11:46:30.318Z,11.10
2023-02-22T11:49:06.414Z,23.70
2023-02-22T11:51:58.970Z,15.00
2023-02-22T11:54:53.762Z,15.30
2023-02-22T11:57:48.861Z,16.80
2023-02-22T12:00:29.117Z,13.70
2023-02-22T12:03:29.609Z,13.80
2023-02-22T12:06:20.280Z,16.20
2023-02-22T12:09:04.678Z,17.30
2023-02-22T12:11:48.237Z,22.00
2023-02-22T12:14:26.705Z,9.90
2023-02-22T12:17:20.595Z,13.40
2023-02-22T12:19:58.830Z,11.40
2023-02-22T12:22:34.797Z,32.40
2023-02-22T12:25:19.544Z,13.10
2023-02-22T12:27:56.980Z,20.70
2023-02-22T12:30:32.504Z,17.20
2023-02-22T12:33:13.342Z,12.30
2023-02-22T12:38:27.906Z,10.80
2023-02-22T12:41:09.895Z,11.20
2023-02-22T12:43:47.703Z,13.40
2023-02-22T12:46:25.725Z,8.40
2023-02-22T12:49:06.256Z,13.30
2023-02-22T12:51:45.280Z,13.00
2023-02-22T12:54:23.133Z,11.30
2023-02-22T12:57:00.732Z,11.40
2023-02-22T12:59:39.236Z,8.40
2023-02-22T13:02:19.632Z,16.30
2023-02-22T13:04:52.798Z,13.20
2023-02-22T13:07:38.864Z,13.10
2023-02-22T13:10:54.798Z,15.80
2023-02-22T13:13:36.742Z,15.10
2023-02-22T13:16:23.177Z,13.60
2023-02-22T13:19:04.605Z,12.40
2023-02-22T13:21:47.674Z,14.90
2023-02-22T13:24:26.236Z,20.10
2023-02-22T13:27:02.941Z,15.70
2023-02-22T13:29:39.878Z,10.80
2023-02-22T13:32:31.052Z,11.60
2023-02-22T13:35:22.119Z,10.10
2023-02-22T13:38:30.450Z,9.30
2023-02-22T13:41:25.485Z,10.20
2023-02-22T13:44:27.074Z,11.70
2023-02-22T13:47:34.898Z,12.80
2023-02-22T13:50:35.732Z,8.00
2023-02-22T13:53:13.638Z,12.70
2023-02-22T13:55:54.378Z,11.60
2023-02-22T13:58:28.709Z,7.80
2023-02-22T14:01:02.962Z,8.90
2023-02-22T14:03:41.919Z,7.80
2023-02-22T14:06:43.115Z,10.50
2023-02-22T14:09:38.953Z,14.60
2023-02-22T14:12:11.491Z,20.40
2023-02-22T14:15:29.075Z,18.30
2023-02-22T14:18:04.177Z,17.70
2023-02-22T14:20:38.294Z,9.80
2023-02-22T14:23:40.986Z,9.00
2023-02-22T14:26:17.604Z,7.30
2023-02-22T14:28:57.737Z,15.70
2023-02-22T14:31:37.492Z,12.40
2023-02-22T14:34:18.458Z,10.90
2023-02-22T14:37:01.446Z,12.40
2023-02-22T14:39:38.463Z,12.70
2023-02-22T14:42:17.871Z,14.10
2023-02-22T14:45:00.819Z,18.10
2023-02-22T14:47:44.232Z,14.50
2023-02-22T14:50:24.850Z,14.20
2023-02-22T14:53:16.542Z,12.50
2023-02-22T14:55:53.236Z,12.10
2023-02-22T14:58:33.120Z,15.10
2023-02-22T15:01:31.249Z,11.00
2023-02-22T15:04:22.833Z,12.50
2023-02-22T15:06:59.891Z,25.20
2023-02-22T15:09:37.583Z,47.60
2023-02-22T15:12:31.404Z,23.70
2023-02-22T15:15:23.240Z,14.50
2023-02-22T15:17:59.870Z,19.00
2023-02-22T15:20:35.798Z,19.90
2023-02-22T15:23:12.041Z,18.40
2023-02-22T15:25:51.054Z,13.10
2023-02-22T15:28:27.292Z,12.30
2023-02-22T15:31:24.184Z,9.10
2023-02-22T15:34:00.018Z,12.30
2023-02-22T15:36:40.239Z,14.00
2023-02-22T15:39:25.693Z,20.90
2023-02-22T15:42:09.751Z,27.60
2023-02-22T15:44:48.949Z,23.50
2023-02-22T15:47:28.324Z,18.70
2023-02-22T15:50:25.143Z,24.10
2023-02-22T15:53:11.811Z,23.40
2023-02-22T15:56:07.191Z,16.70
2023-02-22T15:58:47.592Z,18.40
2023-02-22T16:01:30.336Z,20.70
2023-02-22T16:04:20.268Z,24.40
2023-02-22T16:09:38.510Z,17.90
2023-02-22T16:12:29.499Z,18.40
2023-02-22T16:15:15.826Z,14.80
2023-02-22T16:18:02.162Z,12.70
2023-02-22T16:20:39.718Z,15.70
2023-02-22T16:23:29.645Z,15.70
2023-02-22T16:26:26.609Z,14.70
2023-02-22T16:29:04.981Z,15.40
2023-02-22T16:31:41.441Z,36.50
2023-02-22T16:34:16.652Z,44.10
2023-02-22T16:36:52.805Z,44.90
2023-02-22T16:39:36.409Z,38.40
2023-02-22T16:42:10.611Z,28.00
2023-02-22T16:44:44.416Z,36.50
2023-02-22T16:47:21.996Z,35.90
2023-02-22T16:49:57.231Z,40.90
2023-02-22T16:52:30.592Z,33.60
2023-02-22T16:55:03.199Z,32.20
2023-02-22T16:57:36.032Z,38.30
2023-02-22T17:00:13.184Z,40.80
2023-02-22T17:02:48.271Z,43.40
2023-02-22T17:05:20.844Z,64.00
2023-02-22T17:07:53.805Z,68.60
2023-02-22T17:10:35.966Z,73.30
2023-02-22T17:13:23.812Z,107.80
2023-02-22T17:16:12.603Z,69.20
2023-02-22T17:18:55.678Z,56.10
2023-02-22T17:24:44.440Z,57.20
2023-02-22T17:27:18.717Z,67.20
2023-02-22T17:29:53.377Z,63.40
2023-02-22T17:32:25.697Z,56.70
2023-02-22T17:35:00.563Z,61.20
2023-02-22T17:37:33.994Z,64.90
2023-02-22T17:40:07.003Z,66.30
2023-02-22T17:42:40.258Z,68.30
2023-02-22T17:45:15.405Z,67.60
2023-02-22T17:47:51.238Z,74.30
2023-02-22T17:50:24.681Z,71.50
2023-02-22T17:52:57.034Z,74.90
2023-02-22T17:55:29.558Z,54.00
2023-02-22T17:58:02.196Z,51.50
2023-02-22T18:00:39.034Z,46.20
2023-02-22T18:03:14.229Z,49.00
2023-02-22T18:05:48.847Z,52.90
2023-02-22T18:08:23.747Z,54.70
2023-02-22T18:10:57.500Z,56.10
2023-02-22T18:13:30.359Z,61.10
2023-02-22T18:16:05.815Z,48.00
2023-02-22T18:18:38.584Z,46.70
2023-02-22T18:21:11.096Z,49.20
2023-02-22T18:23:44.949Z,50.10
2023-02-22T18:26:20.158Z,47.00
2023-02-22T18:28:53.655Z,51.30
2023-02-22T18:31:26.956Z,41.00
2023-02-22T18:34:02.227Z,42.20
2023-02-22T18:36:34.658Z,41.00
2023-02-22T18:39:11.721Z,48.20
2023-02-22T18:41:45.905Z,43.80
2023-02-22T18:44:18.792Z,46.10
2023-02-22T18:46:51.333Z,37.20
2023-02-22T18:49:27.126Z,51.40
2023-02-22T18:51:59.706Z,32.80
2023-02-22T18:54:32.213Z,40.00
2023-02-22T18:57:05.568Z,41.90
2023-02-22T18:59:38.502Z,42.90
2023-02-22T19:02:17.481Z,39.60
2023-02-22T19:04:50.105Z,50.40
2023-02-22T19:07:34.325Z,39.50
2023-02-22T19:10:07.624Z,51.40
2023-02-22T19:12:40.316Z,57.90
2023-02-22T19:15:13.422Z,47.80
2023-02-22T19:17:48.732Z,47.80
2023-02-22T19:20:21.384Z,47.00
2023-02-22T19:22:53.865Z,53.60
2023-02-22T19:25:29.149Z,52.10
2023-02-22T19:28:01.672Z,57.60
2023-02-22T19:30:34.269Z,54.70
2023-02-22T19:33:07.130Z,70.30
2023-02-22T19:35:48.181Z,62.00
2023-02-22T19:38:21.008Z,71.00
2023-02-22T19:40:55.602Z,118.50
2023-02-22T19:43:34.594Z,96.60
2023-02-22T19:46:11.716Z,96.20
2023-02-22T19:48:44.602Z,99.00
2023-02-22T19:51:18.588Z,86.50
2023-02-22T19:53:55.524Z,76.20
2023-02-22T19:56:31.472Z,74.90
2023-02-22T19:59:09.651Z,67.40
2023-02-22T20:01:44.857Z,64.80
2023-02-22T20:04:23.091Z,68.90
2023-02-22T20:06:59.079Z,78.00
2023-02-22T20:09:37.893Z,69.80
2023-02-22T20:12:12.928Z,64.80
2023-02-22T20:14:46.460Z,69.60
2023-02-22T20:17:21.381Z,71.90
2023-02-22T20:19:59.306Z,79.00
2023-02-22T20:22:31.751Z,65.80
2023-02-22T20:25:05.368Z,70.10
2023-02-22T20:27:38.882Z,77.40
2023-02-22T20:30:18.158Z,89.80
2023-02-22T20:32:59.950Z,100.00
2023-02-22T20:35:34.130Z,106.20
2023-02-22T20:38:13.937Z,101.20
2023-02-22T20:40:46.957Z,100.80
2023-02-22T20:43:23.185Z,100.70
2023-02-22T20:45:56.393Z,98.60
2023-02-22T20:48:28.982Z,103.90
2023-02-22T20:51:08.341Z,104.40
2023-02-22T20:53:42.108Z,121.80
2023-02-22T20:56:17.948Z,128.20
2023-02-22T20:58:50.463Z,129.10
2023-02-22T21:01:23.897Z,119.10
2023-02-22T21:04:02.432Z,123.30
2023-02-22T21:06:35.695Z,120.00
2023-02-22T21:09:12.840Z,113.60
2023-02-22T21:11:46.731Z,126.70
2023-02-22T21:14:20.217Z,132.40
2023-02-22T21:16:54.040Z,148.00
2023-02-22T21:19:33.406Z,144.10
2023-02-22T21:22:08.503Z,137.60
2023-02-22T21:24:40.901Z,149.70
2023-02-22T21:27:13.299Z,136.80
2023-02-22T21:29:45.689Z,147.50
2023-02-22T21:32:19.319Z,135.10
2023-02-22T21:34:54.318Z,117.80
2023-02-22T21:37:26.653Z,109.80
2023-02-22T21:39:59.273Z,127.20
2023-02-22T21:42:31.677Z,134.60
2023-02-22T21:45:14.209Z,130.00
2023-02-22T21:47:47.510Z,171.90
2023-02-22T21:50:25.552Z,156.60
2023-02-22T21:52:58.120Z,138.10
2023-02-22T21:55:31.089Z,122.70
2023-02-22T21:58:03.668Z,121.20
2023-02-22T22:00:39.277Z,118.30
2023-02-22T22:03:20.591Z,119.20
2023-02-22T22:05:53.256Z,107.50
2023-02-22T22:08:27.948Z,93.00
2023-02-22T22:11:03.542Z,100.80
2023-02-22T22:13:42.072Z,106.40
2023-02-22T22:16:16.523Z,106.30
2023-02-22T22:18:55.706Z,98.60
2023-02-22T22:21:28.896Z,101.70
2023-02-22T22:24:06.609Z,111.00
2023-02-22T22:26:48.555Z,100.30
2023-02-22T22:29:23.688Z,89.40
2023-02-22T22:31:56.415Z,85.60
2023-02-22T22:34:34.118Z,79.40
2023-02-22T22:37:06.664Z,69.90
2023-02-22T22:39:42.601Z,76.80
2023-02-22T22:42:15.507Z,65.30
2023-02-22T22:44:53.849Z,54.10
2023-02-22T22:47:30.800Z,58.40
2023-02-22T22:50:03.327Z,47.70
2023-02-22T22:52:40.268Z,52.90
2023-02-22T22:55:13.155Z,53.90
2023-02-22T22:57:45.523Z,44.80
2023-02-22T23:00:31.612Z,48.20
2023-02-22T23:03:05.809Z,43.40
2023-02-22T23:05:43.496Z,44.00
2023-02-22T23:08:18.855Z,46.30
2023-02-22T23:10:51.698Z,37.10
2023-02-22T23:13:25.595Z,44.90
2023-02-22T23:15:57.948Z,47.10
2023-02-22T23:18:36.434Z,47.60
2023-02-22T23:21:12.960Z,46.80
2023-02-22T23:23:51.780Z,42.50
2023-02-22T23:26:28.576Z,48.70
2023-02-22T23:29:04.770Z,49.70
2023-02-22T23:31:39.956Z,49.70
2023-02-22T23:34:12.752Z,44.00
2023-02-22T23:36:45.358Z,42.30
2023-02-22T23:39:21.704Z,45.30
2023-02-22T23:42:01.177Z,39.50
2023-02-22T23:44:34.208Z,36.20
2023-02-22T23:47:10.684Z,33.40
2023-02-22T23:49:46.017Z,33.70
2023-02-22T23:52:25.038Z,34.40
2023-02-22T23:55:05.618Z,35.80
2023-02-22T23:57:42.973Z,30.50
